Time;durP1;ratioP1;P1;durP2;ratioP2;P2;SDS_P1;SDS_P2;PMS_P1;PMS_P2;Temp;Humidity;BMP_temperature;BMP_pressure;BME280_temperature;BME280_humidity;BME280_pressure;Samples;Min_cycle;Max_cycle;Signal;HPM_P1;HPM_P2
2022/07/10 00:01:26;;;;;;;7.97;1.80;;;;;;;14.07;70.44;102666.00;5046434;28;20357;-78
2022/07/10 00:03:51;;;;;;;6.60;1.95;;;;;;;14.23;70.30;102661.44;5039017;28;20379;-78
2022/07/10 00:06:17;;;;;;;6.72;1.83;;;;;;;14.17;70.54;102677.50;5043332;28;20078;-78
2022/07/10 00:08:42;;;;;;;6.18;1.75;;;;;;;14.18;70.13;102662.69;5041230;28;20400;-77
2022/07/10 00:11:09;;;;;;;5.63;1.90;;;;;;;14.13;70.47;102670.81;5043970;28;20392;-78
2022/07/10 00:13:35;;;;;;;5.95;1.70;;;;;;;14.30;70.59;102701.81;5045913;28;20033;-78
2022/07/10 00:16:01;;;;;;;6.78;1.90;;;;;;;14.25;70.30;102675.19;5033835;28;20530;-78
2022/07/10 00:18:27;;;;;;;7.18;2.15;;;;;;;14.16;70.46;102665.38;5044999;28;20028;-79
2022/07/10 00:20:53;;;;;;;6.85;2.17;;;;;;;13.99;70.87;102652.63;5043380;28;20070;-78
2022/07/10 00:23:18;;;;;;;8.85;2.10;;;;;;;14.15;71.62;102692.41;5042933;28;20029;-79
2022/07/10 00:25:44;;;;;;;5.50;1.90;;;;;;;14.23;70.91;102692.75;5043342;28;20479;-79
2022/07/10 00:28:09;;;;;;;8.93;2.00;;;;;;;14.22;70.89;102678.03;5046738;28;20135;-78
2022/07/10 00:30:34;;;;;;;8.13;2.17;;;;;;;14.01;71.45;102671.63;5053160;28;20036;-79
2022/07/10 00:33:00;;;;;;;7.10;1.95;;;;;;;14.24;71.13;102678.75;5059182;28;20052;-78
2022/07/10 00:35:25;;;;;;;5.07;1.80;;;;;;;14.13;71.04;102659.53;5043028;28;20060;-76
2022/07/10 00:37:50;;;;;;;5.22;1.85;;;;;;;14.05;71.10;102667.88;5044379;28;20033;-78
2022/07/10 00:40:16;;;;;;;6.60;2.00;;;;;;;14.17;70.54;102680.09;5046645;28;20025;-79
2022/07/10 00:42:41;;;;;;;7.78;2.30;;;;;;;14.06;70.47;102664.34;5044864;28;20032;-78
2022/07/10 00:45:07;;;;;;;6.65;2.22;;;;;;;14.10;70.69;102668.38;5040448;28;20072;-78
2022/07/10 00:47:33;;;;;;;8.25;2.33;;;;;;;13.99;70.94;102643.03;5046414;28;20089;-79
2022/07/10 00:49:58;;;;;;;8.48;2.17;;;;;;;14.08;71.09;102652.00;5042535;28;20078;-78
2022/07/10 00:52:24;;;;;;;6.85;2.28;;;;;;;14.13;70.94;102655.16;5045053;28;20017;-78
2022/07/10 00:54:50;;;;;;;6.63;2.17;;;;;;;14.01;71.59;102643.75;5037052;28;20032;-78
2022/07/10 00:57:17;;;;;;;9.18;2.63;;;;;;;14.02;71.30;102655.03;5042604;28;20120;-82
2022/07/10 00:59:44;;;;;;;9.50;2.67;;;;;;;14.04;71.61;102664.41;5044682;28;20071;-79
2022/07/10 01:02:10;;;;;;;7.53;2.30;;;;;;;14.00;71.69;102664.75;5043482;28;20066;-79
2022/07/10 01:04:36;;;;;;;7.75;2.38;;;;;;;13.97;71.90;102664.94;5038532;28;20040;-79
2022/07/10 01:07:01;;;;;;;7.50;2.30;;;;;;;14.09;71.26;102664.13;5036708;28;20029;-79
2022/07/10 01:09:29;;;;;;;7.28;2.30;;;;;;;13.97;71.83;102664.94;5044601;28;20025;-78
2022/07/10 01:11:56;;;;;;;8.15;2.60;;;;;;;13.93;71.90;102647.81;5035891;28;20499;-78
2022/07/10 01:14:21;;;;;;;6.75;2.55;;;;;;;13.93;71.79;102643.44;5040162;28;20049;-78
2022/07/10 01:16:47;;;;;;;7.68;2.63;;;;;;;13.87;72.23;102658.66;5038727;28;20027;-77
2022/07/10 01:19:12;;;;;;;7.00;2.42;;;;;;;13.79;72.94;102644.34;5044859;28;20053;-78
2022/07/10 01:21:37;;;;;;;8.63;3.00;;;;;;;13.94;72.60;102659.94;5041368;28;20060;-78
2022/07/10 01:24:06;;;;;;;8.13;2.83;;;;;;;13.61;73.49;102613.44;5044811;28;20057;-79
2022/07/10 01:26:32;;;;;;;7.82;2.63;;;;;;;13.87;72.85;102633.41;5046044;28;20056;-78
2022/07/10 01:29:01;;;;;;;7.85;2.80;;;;;;;13.80;72.81;102626.94;5049354;28;20368;-78
2022/07/10 01:31:27;;;;;;;12.10;3.03;;;;;;;13.98;72.61;102641.34;5043881;28;20105;-78
2022/07/10 01:33:53;;;;;;;8.00;3.00;;;;;;;13.80;73.13;102632.97;5049128;28;20188;-79
2022/07/10 01:36:20;;;;;;;7.25;2.90;;;;;;;13.90;72.86;102633.22;5047153;28;20098;-78
2022/07/10 01:38:46;;;;;;;6.75;2.80;;;;;;;13.89;73.76;102634.16;5049940;28;20033;-78
2022/07/10 01:41:11;;;;;;;8.02;3.40;;;;;;;13.74;73.37;102622.97;5051018;28;20031;-79
2022/07/10 01:43:37;;;;;;;7.63;2.90;;;;;;;13.87;73.65;102633.41;5048742;28;20074;-78
2022/07/10 01:46:04;;;;;;;10.77;2.85;;;;;;;13.72;74.04;102637.88;5044687;28;20488;-79
2022/07/10 01:48:30;;;;;;;7.47;3.20;;;;;;;13.74;73.72;102633.38;5047523;28;20295;-78
2022/07/10 01:50:56;;;;;;;6.80;2.72;;;;;;;13.59;74.35;102617.91;5049559;28;20031;-78
2022/07/10 01:53:22;;;;;;;7.65;2.67;;;;;;;13.77;73.98;102643.63;5045011;28;20065;-81
2022/07/10 01:55:47;;;;;;;6.57;2.45;;;;;;;13.81;73.73;102636.41;5040145;28;20471;-79
2022/07/10 01:58:13;;;;;;;8.18;3.00;;;;;;;13.67;73.84;102632.13;5048961;28;20055;-78
2022/07/10 02:00:38;;;;;;;7.70;2.85;;;;;;;13.74;73.33;102633.38;5042687;28;20028;-79
2022/07/10 02:05:48;;;;;;;7.22;3.08;;;;;;;13.59;74.29;102639.63;5044337;28;20544;-78
2022/07/10 02:08:13;;;;;;;6.90;2.83;;;;;;;13.53;74.38;102629.56;5045750;28;20108;-79
2022/07/10 02:10:39;;;;;;;7.32;3.00;;;;;;;13.45;75.10;102616.22;5049809;28;20036;-78
2022/07/10 02:13:04;;;;;;;8.45;3.20;;;;;;;13.49;74.19;102597.69;5044706;28;20086;-79
2022/07/10 02:15:29;;;;;;;8.32;3.17;;;;;;;13.47;75.10;102602.13;5040507;28;20037;-79
2022/07/10 02:17:55;;;;;;;9.93;3.20;;;;;;;13.60;75.07;102625.66;5044974;28;20056;-78
2022/07/10 02:20:20;;;;;;;9.30;3.50;;;;;;;13.54;74.38;102618.25;5048074;28;20021;-78
2022/07/10 02:22:46;;;;;;;9.80;3.78;;;;;;;13.56;74.33;102634.59;5046687;28;20342;-76
2022/07/10 02:25:11;;;;;;;9.50;3.67;;;;;;;13.36;75.20;102622.03;5037706;28;20495;-78
2022/07/10 02:27:36;;;;;;;9.70;3.70;;;;;;;13.51;74.82;102634.91;5048413;28;20105;-79
2022/07/10 02:30:02;;;;;;;7.43;3.47;;;;;;;13.43;75.90;102623.31;5046983;28;20100;-78
2022/07/10 02:32:27;;;;;;;10.15;3.53;;;;;;;13.27;75.30;102608.66;5046147;28;20106;-78
2022/07/10 02:34:53;;;;;;;8.68;3.15;;;;;;;13.45;74.25;102605.78;5041937;28;20020;-79
2022/07/10 02:37:18;;;;;;;10.18;3.13;;;;;;;13.29;75.26;102590.31;5046510;28;20064;-79
2022/07/10 02:39:44;;;;;;;10.18;3.67;;;;;;;13.44;75.92;102611.94;5047271;28;20029;-77
2022/07/10 02:42:09;;;;;;;7.53;3.30;;;;;;;13.27;75.02;102580.00;5048209;28;20048;-78
2022/07/10 02:44:35;;;;;;;9.52;3.70;;;;;;;13.61;74.84;102613.44;5048161;28;20063;-79
2022/07/10 02:47:00;;;;;;;8.35;3.30;;;;;;;13.39;74.86;102574.91;5044769;28;20329;-78
2022/07/10 02:49:25;;;;;;;8.63;3.17;;;;;;;13.16;75.07;102558.16;5048333;28;20490;-78
2022/07/10 02:51:51;;;;;;;9.60;3.20;;;;;;;13.49;75.55;102602.06;5034758;28;20072;-78
2022/07/10 02:54:16;;;;;;;8.77;3.47;;;;;;;13.35;75.95;102589.06;5046427;28;20063;-78
2022/07/10 02:56:42;;;;;;;8.70;3.30;;;;;;;13.50;75.57;102590.69;5047003;28;20071;-77
2022/07/10 02:59:07;;;;;;;9.10;3.47;;;;;;;13.35;75.45;102589.06;5046904;28;20431;-79
2022/07/10 03:01:32;;;;;;;6.85;3.20;;;;;;;13.52;75.37;102601.84;5045652;28;20036;-81
2022/07/10 03:03:58;;;;;;;9.38;3.30;;;;;;;13.47;76.08;102588.28;5042932;28;20769;-78
2022/07/10 03:06:23;;;;;;;8.48;3.53;;;;;;;13.40;75.96;102571.38;5044251;28;20376;-78
2022/07/10 03:08:49;;;;;;;11.88;4.28;;;;;;;13.11;75.99;102561.03;5041712;28;20032;-79
2022/07/10 03:11:14;;;;;;;8.63;3.97;;;;;;;13.15;76.18;102561.69;5047668;28;20028;-78
2022/07/10 03:13:40;;;;;;;9.35;3.83;;;;;;;13.33;76.26;102596.16;5043344;28;20029;-79
2022/07/10 03:16:05;;;;;;;7.05;3.80;;;;;;;13.55;76.00;102606.88;5045243;28;20044;-78
2022/07/10 03:18:31;;;;;;;8.35;3.95;;;;;;;13.46;76.32;102594.44;5046719;28;20393;-77
2022/07/10 03:20:56;;;;;;;9.50;3.90;;;;;;;13.42;76.30;102611.19;5045152;28;20106;-78
2022/07/10 03:23:22;;;;;;;7.53;3.38;;;;;;;13.45;76.83;102595.38;5045387;28;20420;-78
2022/07/10 03:25:48;;;;;;;10.60;4.07;;;;;;;13.24;77.15;102588.00;5039803;28;20068;-78
2022/07/10 03:28:13;;;;;;;10.23;3.75;;;;;;;13.31;77.82;102592.84;5046660;28;20147;-79
2022/07/10 03:30:39;;;;;;;9.20;3.70;;;;;;;13.44;77.00;102588.50;5046953;28;20025;-79
2022/07/10 03:33:04;;;;;;;7.45;3.15;;;;;;;13.35;77.51;102589.91;5044443;28;20025;-78
2022/07/10 03:35:31;;;;;;;7.60;3.05;;;;;;;13.38;76.87;102596.72;5046470;28;20111;-77
2022/07/10 03:37:57;;;;;;;8.05;3.00;;;;;;;13.38;77.89;102612.34;5045505;28;20472;-79
2022/07/10 03:40:22;;;;;;;7.25;2.63;;;;;;;13.49;77.36;102607.28;5046763;28;20120;-78
2022/07/10 03:42:47;;;;;;;8.52;2.78;;;;;;;13.40;77.51;102594.81;5045082;28;20036;-78
2022/07/10 03:45:13;;;;;;;7.80;2.72;;;;;;;13.48;77.39;102610.81;5045661;28;20448;-79
2022/07/10 03:47:38;;;;;;;7.60;2.92;;;;;;;13.52;77.49;102607.88;5046544;28;20048;-78
2022/07/10 03:50:05;;;;;;;8.55;2.72;;;;;;;13.53;77.26;102593.06;5045691;28;20472;-78
2022/07/10 03:52:30;;;;;;;8.13;3.25;;;;;;;13.46;77.28;102586.59;5046899;28;20071;-79
2022/07/10 03:54:56;;;;;;;8.32;2.88;;;;;;;13.57;77.44;102584.13;5039924;28;20017;-78
2022/07/10 04:00:06;;;;;;;9.35;3.03;;;;;;;13.50;77.41;102575.88;5044183;28;20047;-78
2022/07/10 04:02:31;;;;;;;7.00;3.00;;;;;;;13.62;77.45;102583.81;5046282;28;20025;-79
2022/07/10 04:04:56;;;;;;;8.75;2.92;;;;;;;13.51;78.00;102574.09;5043792;28;20354;-80
2022/07/10 04:07:22;;;;;;;7.85;3.03;;;;;;;13.48;77.81;102561.28;5044718;28;20033;-80
2022/07/10 04:09:47;;;;;;;9.50;3.33;;;;;;;13.39;77.94;102543.66;5045856;28;20079;-79
2022/07/10 04:12:12;;;;;;;7.30;2.95;;;;;;;13.52;77.91;102554.91;5044532;28;20111;-79
2022/07/10 04:14:38;;;;;;;8.52;3.08;;;;;;;13.44;78.20;102558.03;5046144;28;20374;-79
2022/07/10 04:17:03;;;;;;;10.15;3.28;;;;;;;13.44;78.37;102558.03;5045322;28;20033;-78
2022/07/10 04:19:29;;;;;;;10.38;3.70;;;;;;;13.48;78.58;102564.72;5038762;28;20036;-78
2022/07/10 04:21:54;;;;;;;7.75;3.30;;;;;;;13.50;79.29;102567.22;5044048;28;20151;-78
2022/07/10 04:24:19;;;;;;;8.98;3.28;;;;;;;13.37;78.63;102529.88;5043480;28;20028;-79
2022/07/10 04:26:45;;;;;;;9.20;3.40;;;;;;;13.58;78.16;102570.16;5046397;28;20357;-77
2022/07/10 04:29:10;;;;;;;8.88;3.35;;;;;;;13.57;78.39;102581.53;5038997;28;20061;-79
2022/07/10 04:31:36;;;;;;;9.00;3.20;;;;;;;13.70;78.23;102584.97;5044073;28;20338;-78
2022/07/10 04:34:02;;;;;;;10.85;3.50;;;;;;;13.71;77.99;102584.06;5045264;28;20075;-78
2022/07/10 04:36:28;;;;;;;10.32;3.47;;;;;;;13.72;78.30;102577.91;5036303;28;20064;-79
2022/07/10 04:38:53;;;;;;;8.43;3.30;;;;;;;13.69;78.42;102580.69;5045966;28;20475;-78
2022/07/10 04:41:19;;;;;;;10.20;3.60;;;;;;;13.71;78.52;102578.84;5044425;28;20032;-77
2022/07/10 04:43:45;;;;;;;10.45;3.45;;;;;;;13.77;78.22;102591.47;5036211;28;20024;-78
2022/07/10 04:46:10;;;;;;;8.27;2.95;;;;;;;13.85;77.77;102592.72;5045019;28;20024;-78
2022/07/10 04:48:35;;;;;;;9.88;3.20;;;;;;;13.87;78.12;102596.06;5043841;28;20032;-78
2022/07/10 04:51:01;;;;;;;10.68;3.42;;;;;;;13.84;77.66;102585.84;5038275;28;20112;-78
2022/07/10 04:53:26;;;;;;;8.38;3.28;;;;;;;13.97;77.15;102589.28;5044187;28;20050;-78
2022/07/10 04:55:51;;;;;;;8.07;3.10;;;;;;;13.81;77.53;102572.06;5042389;28;20083;-78
2022/07/10 04:58:17;;;;;;;9.32;3.10;;;;;;;13.97;77.96;102581.47;5037815;28;20160;-77
2022/07/10 05:00:42;;;;;;;7.95;2.80;;;;;;;13.95;77.66;102578.13;5037972;28;20045;-78
2022/07/10 05:03:07;;;;;;;9.00;2.80;;;;;;;14.02;77.60;102579.38;5038617;28;20424;-78
2022/07/10 05:05:33;;;;;;;11.20;2.95;;;;;;;13.97;77.27;102581.47;5050094;28;20099;-77
2022/07/10 05:07:58;;;;;;;8.38;2.92;;;;;;;13.86;76.96;102558.69;5048831;28;20107;-77
2022/07/10 05:10:24;;;;;;;7.68;2.72;;;;;;;14.06;77.02;102591.28;5048020;28;20056;-77
2022/07/10 05:12:50;;;;;;;8.13;2.40;;;;;;;13.91;77.30;102581.88;5047026;28;20399;-78
2022/07/10 05:15:15;;;;;;;9.45;2.60;;;;;;;13.88;77.45;102592.50;5041458;28;20408;-79
2022/07/10 05:17:40;;;;;;;8.98;2.50;;;;;;;13.98;76.70;102604.00;5048502;28;20021;-77
2022/07/10 05:20:06;;;;;;;7.90;2.30;;;;;;;14.05;76.33;102595.66;5042706;28;20037;-78
2022/07/10 05:22:32;;;;;;;9.32;2.50;;;;;;;13.95;76.47;102578.97;5044451;28;20087;-78
2022/07/10 05:24:57;;;;;;;9.25;2.58;;;;;;;13.89;76.72;102573.31;5048966;28;20027;-78
2022/07/10 05:27:22;;;;;;;8.57;2.63;;;;;;;14.00;77.03;102594.31;5048892;28;20032;-78
2022/07/10 05:29:48;;;;;;;9.40;3.00;;;;;;;14.08;76.82;102610.25;5047630;28;20028;-78
2022/07/10 05:32:14;;;;;;;9.27;3.13;;;;;;;14.14;76.48;102599.41;5047786;28;20039;-78
2022/07/10 05:34:40;;;;;;;12.07;2.80;;;;;;;14.15;76.46;102590.63;5048652;28;20083;-78
2022/07/10 05:37:06;;;;;;;8.80;2.80;;;;;;;14.23;76.60;102604.00;5049757;28;20025;-79
2022/07/10 05:39:32;;;;;;;9.25;2.40;;;;;;;14.15;76.32;102587.19;5046855;28;20060;-79
2022/07/10 05:41:58;;;;;;;8.48;2.28;;;;;;;14.25;76.70;102586.47;5038516;28;20052;-78
2022/07/10 05:44:23;;;;;;;9.18;2.42;;;;;;;14.24;76.26;102579.56;5041574;28;20065;-78
2022/07/10 05:46:49;;;;;;;10.07;2.38;;;;;;;14.37;75.43;102603.03;5043484;28;20115;-78
2022/07/10 05:49:14;;;;;;;8.40;2.30;;;;;;;14.45;75.47;102598.16;5043912;28;20481;-78
2022/07/10 05:51:39;;;;;;;10.43;2.50;;;;;;;14.30;75.09;102573.09;5033330;28;20040;-77
2022/07/10 05:54:05;;;;;;;9.95;2.33;;;;;;;14.53;75.42;102600.25;5040906;28;20087;-78
2022/07/10 05:56:30;;;;;;;9.25;2.58;;;;;;;14.48;74.36;102591.88;5047656;28;20074;-79
2022/07/10 05:58:56;;;;;;;7.72;2.28;;;;;;;14.58;75.05;102608.59;5048555;28;20114;-77
2022/07/10 06:01:23;;;;;;;8.52;2.38;;;;;;;14.34;74.97;102559.72;5049308;28;20043;-77
2022/07/10 06:03:48;;;;;;;8.18;1.98;;;;;;;14.60;75.02;102586.63;5047093;28;20071;-78
2022/07/10 06:06:15;;;;;;;7.20;2.13;;;;;;;14.72;74.91;102600.59;5049019;28;20025;-78
2022/07/10 06:08:41;;;;;;;8.40;2.28;;;;;;;14.47;74.17;102558.91;5045634;28;20468;-78
2022/07/10 06:11:06;;;;;;;7.22;2.08;;;;;;;14.51;74.49;102555.13;5043009;28;20086;-80
2022/07/10 06:13:31;;;;;;;9.77;2.40;;;;;;;14.56;74.51;102553.00;5049140;28;20036;-78
2022/07/10 06:15:57;;;;;;;10.30;2.58;;;;;;;14.80;74.68;102577.41;5038638;28;20039;-78
2022/07/10 06:18:22;;;;;;;8.35;2.33;;;;;;;14.60;74.42;102560.53;5046770;28;20096;-78
2022/07/10 06:20:48;;;;;;;7.43;2.28;;;;;;;14.84;74.59;102594.50;5039731;28;20025;-77
2022/07/10 06:23:13;;;;;;;9.90;2.50;;;;;;;14.87;74.91;102594.28;5046009;28;20107;-77
2022/07/10 06:25:39;;;;;;;8.38;2.50;;;;;;;14.75;74.89;102569.06;5043017;28;20028;-78
2022/07/10 06:28:04;;;;;;;7.63;2.60;;;;;;;14.85;76.00;102585.75;5045375;28;20074;-77
2022/07/10 06:30:30;;;;;;;10.38;2.45;;;;;;;15.05;75.08;102591.31;5042224;28;20030;-78
2022/07/10 06:32:55;;;;;;;8.75;2.72;;;;;;;15.09;74.88;102597.97;5044545;28;20060;-78
2022/07/10 06:35:20;;;;;;;8.23;2.33;;;;;;;15.10;74.67;102594.41;5048666;28;20028;-78
2022/07/10 06:37:46;;;;;;;8.50;2.20;;;;;;;15.18;73.63;102602.53;5046297;28;20086;-77
2022/07/10 06:40:13;;;;;;;8.00;1.92;;;;;;;15.15;73.28;102597.53;5047725;28;20033;-77
2022/07/10 06:42:39;;;;;;;9.87;2.07;;;;;;;15.10;73.32;102590.03;5048720;28;20056;-78
2022/07/10 06:45:05;;;;;;;6.50;1.98;;;;;;;15.20;73.21;102603.25;5046097;28;20075;-78
2022/07/10 06:50:15;;;;;;;8.25;2.17;;;;;;;15.16;72.93;102582.69;5045161;28;20135;-77
2022/07/10 06:52:41;;;;;;;11.23;2.60;;;;;;;15.30;73.11;102596.41;5045741;28;20132;-78
2022/07/10 06:55:06;;;;;;;8.90;2.38;;;;;;;15.30;74.05;102585.94;5047156;28;20036;-77
2022/07/10 06:57:32;;;;;;;10.30;2.80;;;;;;;15.35;74.03;102594.28;5046910;28;20037;-77
2022/07/10 06:59:58;;;;;;;6.90;2.25;;;;;;;15.36;73.55;102595.94;5046579;28;20028;-77
2022/07/10 07:02:23;;;;;;;9.43;2.35;;;;;;;15.25;73.66;102576.75;5057940;28;20051;-78
2022/07/10 07:04:49;;;;;;;10.35;2.13;;;;;;;15.33;73.41;102590.94;5044391;28;20043;-77
2022/07/10 07:07:15;;;;;;;8.77;2.40;;;;;;;15.38;74.02;102588.84;5034376;28;20036;-76
2022/07/10 07:09:42;;;;;;;9.48;2.63;;;;;;;15.38;73.82;102588.84;5045258;28;20031;-77
2022/07/10 07:12:08;;;;;;;8.73;2.22;;;;;;;15.25;73.29;102574.97;5047097;28;20025;-77
2022/07/10 07:14:34;;;;;;;10.30;2.67;;;;;;;15.40;73.59;102592.16;5046544;28;20033;-78
2022/07/10 07:17:06;;;;;;;10.80;2.60;;;;;;;15.35;74.08;102572.53;5042548;28;20029;-79
2022/07/10 07:23:09;;;;;;;8.02;2.22;;;;;;;15.56;74.04;102585.81;5037029;28;20129;-79
2022/07/10 07:25:08;;;;;;;10.68;2.50;;;;;;;15.45;73.01;102593.63;5039699;28;20500;-78
2022/07/10 07:27:35;;;;;;;9.45;2.90;;;;;;;15.42;73.50;102581.56;5040215;28;20052;-78
2022/07/10 07:30:06;;;;;;;7.05;2.10;;;;;;;15.55;73.38;102605.91;5040664;28;20409;-77
2022/07/10 07:32:32;;;;;;;8.95;2.47;;;;;;;15.58;73.75;102594.34;5040230;28;20031;-77
2022/07/10 07:34:58;;;;;;;8.98;2.25;;;;;;;15.63;74.43;102607.97;5042809;28;20104;-77
2022/07/10 07:37:41;;;;;;;9.55;2.55;;;;;;;15.60;73.78;102597.72;5040273;28;20032;-78
2022/07/10 07:40:12;;;;;;;9.52;2.22;;;;;;;15.67;73.34;102598.94;5041056;28;20086;-77
2022/07/10 07:42:37;;;;;;;9.90;2.28;;;;;;;15.64;73.76;102600.00;5040256;28;20375;-78
2022/07/10 07:45:04;;;;;;;8.90;2.38;;;;;;;15.65;72.70;102606.06;5041970;28;20033;-78
2022/07/10 07:47:31;;;;;;;7.22;2.30;;;;;;;15.65;73.51;102601.69;5042083;28;20033;-77
2022/07/10 07:49:57;;;;;;;11.18;2.33;;;;;;;15.62;73.13;102590.56;5043435;28;20460;-79
2022/07/10 07:52:22;;;;;;;7.65;2.20;;;;;;;15.66;72.95;102607.75;5043579;28;20112;-75
2022/07/10 07:54:49;;;;;;;8.23;2.25;;;;;;;15.71;73.23;102605.59;5046062;28;20522;-78
2022/07/10 07:57:14;;;;;;;7.65;2.13;;;;;;;15.71;73.28;102600.34;5032718;28;20371;-79
2022/07/10 07:59:40;;;;;;;10.20;2.75;;;;;;;15.72;73.80;102591.59;5038209;28;20127;-78
2022/07/10 08:02:06;;;;;;;8.95;2.63;;;;;;;15.85;73.71;102602.78;5043078;28;20090;-78
2022/07/10 08:04:32;;;;;;;9.48;2.40;;;;;;;15.79;73.39;102586.72;5044757;28;20036;-78
2022/07/10 08:06:57;;;;;;;8.88;2.50;;;;;;;15.83;74.12;102598.63;5044787;28;20024;-78
2022/07/10 08:09:22;;;;;;;7.88;2.50;;;;;;;15.87;73.96;102603.50;5046235;28;20032;-78
2022/07/10 08:11:48;;;;;;;10.55;2.70;;;;;;;15.96;74.07;102598.53;5043462;28;20052;-78
2022/07/10 08:14:14;;;;;;;9.18;2.60;;;;;;;15.93;73.92;102589.09;5040709;28;20022;-78
2022/07/10 08:16:40;;;;;;;8.90;2.55;;;;;;;16.11;73.05;102597.34;5046765;28;20319;-78
2022/07/10 08:19:06;;;;;;;11.68;2.65;;;;;;;16.03;72.60;102589.25;5042695;28;20053;-78
2022/07/10 08:21:32;;;;;;;7.30;2.65;;;;;;;16.09;73.33;102599.25;5044037;28;20726;-77
2022/07/10 08:23:58;;;;;;;9.25;2.40;;;;;;;16.10;71.86;102606.13;5040676;28;20024;-79
2022/07/10 08:26:24;;;;;;;8.25;2.47;;;;;;;16.10;72.50;102590.44;5042452;28;20419;-78
2022/07/10 08:28:49;;;;;;;8.63;2.47;;;;;;;16.11;72.42;102594.72;5034714;28;20559;-78
2022/07/10 08:31:15;;;;;;;7.40;2.78;;;;;;;16.01;72.34;102597.22;5033558;28;20049;-78
2022/07/10 08:33:40;;;;;;;7.75;2.33;;;;;;;16.03;72.59;102599.72;5043721;28;20029;-77
2022/07/10 08:36:06;;;;;;;8.23;2.70;;;;;;;16.09;72.88;102599.25;5045318;28;20028;-78
2022/07/10 08:38:31;;;;;;;7.53;2.80;;;;;;;16.10;72.35;102600.91;5043180;28;20029;-78
2022/07/10 08:40:58;;;;;;;8.73;2.78;;;;;;;16.14;73.48;102602.34;5043752;28;20029;-79
2022/07/10 08:43:24;;;;;;;8.20;2.92;;;;;;;16.15;73.03;102601.38;5041325;28;20025;-78
2022/07/10 08:45:51;;;;;;;10.50;2.80;;;;;;;15.99;72.57;102595.66;5040641;28;20055;-78
2022/07/10 08:48:21;;;;;;;4.90;2.17;;;;;;;16.09;72.60;102614.94;5040098;28;20503;-79
2022/07/10 08:50:47;;;;;;;9.15;2.75;;;;;;;15.96;73.14;102594.13;5046470;28;20457;-78
2022/07/10 08:53:23;;;;;;;8.57;2.38;;;;;;;16.02;72.48;102590.22;5044101;28;20465;-78
2022/07/10 08:55:48;;;;;;;8.07;2.50;;;;;;;16.14;72.84;102618.88;5046086;28;20350;-77
2022/07/10 08:58:15;;;;;;;8.38;2.35;;;;;;;16.06;72.13;102599.50;5039647;28;20488;-77
2022/07/10 09:00:40;;;;;;;8.02;2.85;;;;;;;16.03;71.77;102604.94;5043492;28;20028;-78
2022/07/10 09:03:08;;;;;;;6.35;2.00;;;;;;;16.04;72.72;102611.84;5044143;28;20360;-78
2022/07/10 09:05:33;;;;;;;7.35;2.30;;;;;;;16.01;72.99;102596.41;5041449;28;20416;-78
2022/07/10 09:07:58;;;;;;;7.57;2.40;;;;;;;16.08;72.45;102597.59;5045830;28;20068;-77
2022/07/10 09:10:26;;;;;;;9.45;3.00;;;;;;;16.04;72.58;102585.69;5044244;28;20135;-77
2022/07/10 09:12:53;;;;;;;5.83;2.60;;;;;;;16.18;72.80;102593.31;5044370;28;20086;-78
2022/07/10 09:15:21;;;;;;;10.48;3.00;;;;;;;16.25;73.00;102584.03;5044109;28;20317;-77
2022/07/10 09:17:59;;;;;;;6.93;2.40;;;;;;;16.42;72.10;102596.63;5040159;28;20051;-77
2022/07/10 09:20:31;;;;;;;6.90;2.78;;;;;;;16.61;72.88;102589.94;5044304;28;20036;-77
2022/07/10 09:23:14;;;;;;;8.95;2.67;;;;;;;16.70;71.84;102594.47;5043532;28;20036;-76
2022/07/10 09:25:40;;;;;;;7.35;2.58;;;;;;;16.65;71.35;102573.03;5043265;28;20475;-79
2022/07/10 09:28:05;;;;;;;8.82;2.88;;;;;;;16.80;70.56;102579.69;5044678;28;20031;-77
2022/07/10 09:30:39;;;;;;;7.47;2.90;;;;;;;16.92;71.08;102578.72;5037802;28;20033;-76
2022/07/10 09:33:27;;;;;;;7.15;2.75;;;;;;;17.01;71.24;102582.38;5043025;28;20036;-75
2022/07/10 09:36:18;;;;;;;7.75;2.95;;;;;;;17.07;71.28;102576.63;5034247;28;20075;-74
2022/07/10 09:38:44;;;;;;;7.60;2.67;;;;;;;17.20;70.05;102566.81;5035007;28;20468;-73
2022/07/10 09:41:22;;;;;;;7.57;2.50;;;;;;;17.30;69.35;102581.78;5049818;28;20067;-71
2022/07/10 09:43:51;;;;;;;;;;;;;;;17.42;69.88;102576.34;5047980;28;20032;-77
2022/07/10 09:46:19;;;;;;;7.50;2.22;;;;;;;17.38;69.21;102569.72;5041804;28;19917;-78
2022/07/10 09:48:45;;;;;;;7.25;2.65;;;;;;;17.40;68.45;102565.16;5047990;28;20036;-77
2022/07/10 09:51:11;;;;;;;6.93;2.40;;;;;;;17.37;68.66;102569.81;5044603;28;20072;-77
2022/07/10 09:53:42;;;;;;;6.20;2.40;;;;;;;17.43;68.21;102575.41;5047608;28;20067;-76
2022/07/10 09:56:09;;;;;;;5.50;2.42;;;;;;;17.46;67.37;102571.69;5049692;28;20039;-77
2022/07/10 09:58:36;;;;;;;6.60;2.40;;;;;;;17.41;67.82;102553.72;5046305;28;20407;-77
2022/07/10 10:01:08;;;;;;;6.03;2.35;;;;;;;17.56;67.20;102569.16;5041981;28;20061;-74
2022/07/10 10:03:38;;;;;;;6.18;2.42;;;;;;;17.77;68.57;102569.97;5040683;28;20131;-73
2022/07/10 10:06:09;;;;;;;6.82;2.60;;;;;;;17.74;67.19;102575.50;5037874;28;20035;-73
2022/07/10 10:08:44;;;;;;;6.38;2.50;;;;;;;17.89;67.03;102558.47;5043438;28;20367;-76
2022/07/10 10:11:15;;;;;;;4.25;2.25;;;;;;;17.97;66.99;102561.25;5047222;28;20028;-78
2022/07/10 10:13:42;;;;;;;6.50;2.38;;;;;;;18.12;66.77;102563.50;5041808;28;20045;-75
2022/07/10 10:16:09;;;;;;;6.65;2.53;;;;;;;17.99;66.30;102561.94;5044990;28;21185;-75
2022/07/10 10:18:36;;;;;;;5.80;2.40;;;;;;;17.95;64.66;102557.94;5049176;28;20036;-76
2022/07/10 10:21:06;;;;;;;5.32;2.33;;;;;;;18.11;65.75;102572.34;5045574;28;20911;-75
2022/07/10 10:23:33;;;;;;;7.28;2.10;;;;;;;18.08;65.24;102556.88;5047617;28;20074;-76
2022/07/10 10:25:58;;;;;;;6.05;2.30;;;;;;;18.21;66.85;102563.56;5046793;28;20140;-73
2022/07/10 10:28:25;;;;;;;4.90;1.70;;;;;;;18.32;65.11;102562.63;5048174;28;20104;-77
2022/07/10 10:31:01;;;;;;;6.22;2.28;;;;;;;18.34;64.96;102555.44;5047720;28;20472;-76
2022/07/10 10:33:32;;;;;;;5.82;2.30;;;;;;;18.31;64.65;102563.59;5034084;28;20116;-76
2022/07/10 10:35:58;;;;;;;5.53;2.40;;;;;;;18.38;64.11;102554.22;5041770;28;20096;-76
2022/07/10 10:38:23;;;;;;;5.18;2.00;;;;;;;18.46;63.31;102546.47;5048509;28;20025;-74
2022/07/10 10:40:49;;;;;;;5.72;2.20;;;;;;;18.38;63.40;102533.19;5063503;28;20044;-76
2022/07/10 10:43:21;;;;;;;5.35;2.22;;;;;;;18.61;63.71;102559.25;5046585;28;20020;-75
2022/07/10 10:45:51;;;;;;;4.80;2.38;;;;;;;18.69;63.85;102551.53;5044991;28;20020;-75
2022/07/10 10:48:20;;;;;;;5.32;2.35;;;;;;;18.78;64.14;102545.47;5043495;28;20021;-75
2022/07/10 10:50:47;;;;;;;5.22;2.35;;;;;;;18.71;63.81;102541.72;5046006;28;20029;-77
2022/07/10 10:53:18;;;;;;;5.50;2.20;;;;;;;18.77;64.64;102542.00;5046924;28;20415;-76
2022/07/10 10:56:03;;;;;;;4.78;1.90;;;;;;;18.89;65.01;102558.50;5051833;28;20439;-76
2022/07/10 10:58:41;;;;;;;4.95;1.90;;;;;;;18.95;63.92;102547.41;5045787;28;20108;-77
2022/07/10 11:01:25;;;;;;;7.68;2.40;;;;;;;18.92;64.02;102555.56;5047869;28;20029;-76
2022/07/10 11:04:09;;;;;;;5.25;2.22;;;;;;;18.82;63.72;102552.94;5043549;28;20066;-76
2022/07/10 11:06:53;;;;;;;4.93;2.20;;;;;;;18.81;64.68;102537.31;5047798;28;20055;-76
2022/07/10 11:09:26;;;;;;;4.75;2.10;;;;;;;18.95;64.57;102547.41;5046149;28;20374;-76
2022/07/10 11:12:05;;;;;;;4.40;1.90;;;;;;;19.05;64.56;102548.25;5054035;28;20083;-77
2022/07/10 11:14:32;;;;;;;5.00;2.20;;;;;;;18.91;62.75;102540.75;5044687;28;20047;-76
2022/07/10 11:16:58;;;;;;;5.47;2.30;;;;;;;18.85;63.30;102541.31;5044782;28;20331;-76
2022/07/10 11:19:26;;;;;;;4.57;1.77;;;;;;;19.08;65.46;102540.06;5043874;28;20029;-76
2022/07/10 11:21:59;;;;;;;5.05;2.10;;;;;;;19.08;64.51;102536.63;5047634;28;20017;-76
2022/07/10 11:25:01;;;;;;;5.93;2.10;;;;;;;19.17;64.07;102535.78;5047096;28;20029;-76
2022/07/10 11:27:42;;;;;;;4.45;1.83;;;;;;;19.17;64.01;102540.22;5038117;28;20025;-76
2022/07/10 11:30:07;;;;;;;5.75;1.95;;;;;;;19.17;63.74;102545.50;5045394;28;20098;-77
2022/07/10 11:32:33;;;;;;;4.50;2.00;;;;;;;19.03;63.84;102536.19;5049936;28;20036;-79
2022/07/10 11:34:59;;;;;;;5.47;1.83;;;;;;;19.18;65.15;102536.63;5042555;28;20037;-76